New Yoshino — JG5527 — position and weather

sailwx.info

Track history (hours):
 
Tides and Currents Weather Stations Pressure Air Temp Water Temp Dewpoint Dewpoint Depression Visibility Wind Speed Wind Dir Waves Ship Positions

New Yoshino

Last reported at 2017-Feb-26 18:28 UTC. Time now 2017-Feb-27 18:06 UTC.
Position N 33°42' E 132°08'.

Length 102 m; draft 4.5 m.

Type: Tanker. MMSI: 431300724.

Date/timePositionNaut miles runAvg speedWind from/ knotsBaromVisibWave heightAir tempDewpointWater temp
2017-Feb-26 18:28N 33°42' E 132°08'1415.6
2017-Feb-26 17:33N 33°46' E 132°25'1616.1
2017-Feb-26 16:33N 33°56' E 132°40'11113.4
2017-Feb-26 08:18N 34°33' E 134°46'1113.5
2017-Feb-26 07:29N 34°37' E 134°58'8 7.4
2017-Feb-26 06:22N 34°39' E 135°08'0 0.0
2017-Feb-26 05:28N 34°39' E 135°08'0 0.0
2017-Feb-26 04:28N 34°39' E 135°08'0 0.0
2017-Feb-26 03:16N 34°39' E 135°08'0 0.0
2017-Feb-26 01:23N 34°39' E 135°08'6 6.7
2017-Feb-26 00:33N 34°33' E 135°06'1414.0
2017-Feb-25 23:32N 34°20' E 135°00'1414.0
2017-Feb-25 22:33N 34°06' E 134°60'227 6.7
2017-Feb-24 12:32N 34°57' E 139°28'1313.8
2017-Feb-24 11:34N 35°05' E 139°41'1212.3
2017-Feb-24 10:34N 35°17' E 139°45'1211.8
2017-Feb-24 09:34N 35°29' E 139°48'2 0.3
2017-Feb-24 02:13N 35°31' E 139°47'3 5.2
2017-Feb-24 01:33N 35°29' E 139°43'5 5.2
2017-Feb-24 00:33N 35°24' E 139°45'0 0.1
2017-Feb-23 23:32N 35°24' E 139°45'3 3.2
2017-Feb-23 22:33N 35°21' E 139°44'1111.5
2017-Feb-23 21:33N 35°10' E 139°47'1211.8
2017-Feb-23 20:33N 35°01' E 139°37'23710.3
2017-Feb-22 21:30N 33°58' E 134°60'8 8.2
2017-Feb-22 20:33N 34°06' E 134°59'9 9.5
2017-Feb-22 19:33N 34°15' E 134°58'9 8.9
2017-Feb-22 18:30N 34°24' E 135°03'1212.1
2017-Feb-22 17:32N 34°30' E 135°15'8 0.6
2017-Feb-22 03:34N 34°32' E 135°24'1010.2
2017-Feb-22 02:33N 34°28' E 135°13'1513.5
2017-Feb-22 01:27N 34°18' E 134°59'1314.0
2017-Feb-22 00:33N 34°06' E 134°60'  
2017-Feb-18 12:31N 34°57' E 139°29'1313.4
2017-Feb-18 11:33N 35°05' E 139°41'1212.0
2017-Feb-18 10:33N 35°17' E 139°45'1010.4
2017-Feb-18 09:33N 35°27' E 139°47'1110.9
2017-Feb-18 08:32N 35°29' E 140°01'3 0.4
2017-Feb-18 01:22N 35°30' E 139°58'4 5.1
2017-Feb-18 00:33N 35°29' E 139°54'1211.7
2017-Feb-17 23:33N 35°20' E 139°44'1212.0
2017-Feb-17 22:33N 35°08' E 139°46'1312.9
2017-Feb-17 21:33N 34°60' E 139°34'  
Track history (hours):
 
Tides and Currents Weather Stations Pressure Air Temp Water Temp Dewpoint Dewpoint Depression Visibility Wind Speed Wind Dir Waves Ship Positions

New Yoshino

Last reported at 2017-Feb-26 18:28 UTC. Time now 2017-Feb-27 18:06 UTC.
Position N 33°42' E 132°08'.

Length 102 m; draft 4.5 m.

Type: Tanker. MMSI: 431300724.

Date/timePositionNaut miles runAvg speedWind from/ knotsBaromVisibWave heightAir tempDewpointWater temp
2017-Feb-26 18:28N 33°42' E 132°08'1415.6
2017-Feb-26 17:33N 33°46' E 132°25'1616.1
2017-Feb-26 16:33N 33°56' E 132°40'11113.4
2017-Feb-26 08:18N 34°33' E 134°46'1113.5
2017-Feb-26 07:29N 34°37' E 134°58'8 7.4
2017-Feb-26 06:22N 34°39' E 135°08'0 0.0
2017-Feb-26 05:28N 34°39' E 135°08'0 0.0
2017-Feb-26 04:28N 34°39' E 135°08'0 0.0
2017-Feb-26 03:16N 34°39' E 135°08'0 0.0
2017-Feb-26 01:23N 34°39' E 135°08'6 6.7
2017-Feb-26 00:33N 34°33' E 135°06'1414.0
2017-Feb-25 23:32N 34°20' E 135°00'1414.0
2017-Feb-25 22:33N 34°06' E 134°60'227 6.7
2017-Feb-24 12:32N 34°57' E 139°28'1313.8
2017-Feb-24 11:34N 35°05' E 139°41'1212.3
2017-Feb-24 10:34N 35°17' E 139°45'1211.8
2017-Feb-24 09:34N 35°29' E 139°48'2 0.3
2017-Feb-24 02:13N 35°31' E 139°47'3 5.2
2017-Feb-24 01:33N 35°29' E 139°43'5 5.2
2017-Feb-24 00:33N 35°24' E 139°45'0 0.1
2017-Feb-23 23:32N 35°24' E 139°45'3 3.2
2017-Feb-23 22:33N 35°21' E 139°44'1111.5
2017-Feb-23 21:33N 35°10' E 139°47'1211.8
2017-Feb-23 20:33N 35°01' E 139°37'23710.3
2017-Feb-22 21:30N 33°58' E 134°60'8 8.2
2017-Feb-22 20:33N 34°06' E 134°59'9 9.5
2017-Feb-22 19:33N 34°15' E 134°58'9 8.9
2017-Feb-22 18:30N 34°24' E 135°03'1212.1
2017-Feb-22 17:32N 34°30' E 135°15'8 0.6
2017-Feb-22 03:34N 34°32' E 135°24'1010.2
2017-Feb-22 02:33N 34°28' E 135°13'1513.5
2017-Feb-22 01:27N 34°18' E 134°59'1314.0
2017-Feb-22 00:33N 34°06' E 134°60'  
2017-Feb-18 12:31N 34°57' E 139°29'1313.4
2017-Feb-18 11:33N 35°05' E 139°41'1212.0
2017-Feb-18 10:33N 35°17' E 139°45'1010.4
2017-Feb-18 09:33N 35°27' E 139°47'1110.9
2017-Feb-18 08:32N 35°29' E 140°01'3 0.4
2017-Feb-18 01:22N 35°30' E 139°58'4 5.1
2017-Feb-18 00:33N 35°29' E 139°54'1211.7
2017-Feb-17 23:33N 35°20' E 139°44'1212.0
2017-Feb-17 22:33N 35°08' E 139°46'1312.9
2017-Feb-17 21:33N 34°60' E 139°34'  

Dump ship's entire track history